Aviation Digital Data Service (ADDS)

Output produced by METARs form (0220 UTC 23 October 2014)
found at http://aviationweather.gov/adds/metars/
 
KPHX 222336Z 2300/2324 25005KT P6SM FEW250 
     FM230500 09005KT P6SM FEW250 
     FM231900 VRB03KT P6SM BKN250